sensor_id;sensor_type;location;lat;lon;timestamp;P1;durP1;ratioP1;P2;durP2;ratioP2
64467;SDS011;50853;46.836;16.820;2024-02-26T00:01:42;4.32;;;2.40;;
64467;SDS011;50853;46.836;16.820;2024-02-26T00:04:11;3.25;;;2.22;;
64467;SDS011;50853;46.836;16.820;2024-02-26T00:06:38;3.58;;;2.17;;
64467;SDS011;50853;46.836;16.820;2024-02-26T00:09:07;2.83;;;2.05;;
64467;SDS011;50853;46.836;16.820;2024-02-26T00:11:36;3.85;;;2.28;;
64467;SDS011;50853;46.836;16.820;2024-02-26T00:14:02;4.72;;;2.35;;
64467;SDS011;50853;46.836;16.820;2024-02-26T00:16:29;3.85;;;2.10;;
64467;SDS011;50853;46.836;16.820;2024-02-26T00:18:55;4.50;;;2.40;;
64467;SDS011;50853;46.836;16.820;2024-02-26T00:21:21;3.55;;;2.42;;
64467;SDS011;50853;46.836;16.820;2024-02-26T00:23:47;4.30;;;2.30;;
64467;SDS011;50853;46.836;16.820;2024-02-26T00:26:14;3.25;;;2.25;;
64467;SDS011;50853;46.836;16.820;2024-02-26T00:28:40;4.25;;;2.50;;
64467;SDS011;50853;46.836;16.820;2024-02-26T00:31:06;4.57;;;2.53;;
64467;SDS011;50853;46.836;16.820;2024-02-26T00:33:32;3.63;;;2.33;;
64467;SDS011;50853;46.836;16.820;2024-02-26T00:35:58;3.83;;;2.05;;
64467;SDS011;50853;46.836;16.820;2024-02-26T00:38:24;3.80;;;2.47;;
64467;SDS011;50853;46.836;16.820;2024-02-26T00:40:49;4.28;;;2.53;;
64467;SDS011;50853;46.836;16.820;2024-02-26T00:43:15;3.92;;;2.60;;
64467;SDS011;50853;46.836;16.820;2024-02-26T00:45:41;4.93;;;2.85;;
64467;SDS011;50853;46.836;16.820;2024-02-26T00:48:07;3.88;;;2.35;;
64467;SDS011;50853;46.836;16.820;2024-02-26T00:50:33;6.63;;;2.45;;
64467;SDS011;50853;46.836;16.820;2024-02-26T00:52:59;4.80;;;2.63;;
64467;SDS011;50853;46.836;16.820;2024-02-26T00:55:25;4.77;;;3.07;;
64467;SDS011;50853;46.836;16.820;2024-02-26T00:57:51;3.72;;;2.50;;
64467;SDS011;50853;46.836;16.820;2024-02-26T01:00:17;4.10;;;2.50;;
64467;SDS011;50853;46.836;16.820;2024-02-26T01:02:43;3.97;;;2.28;;
64467;SDS011;50853;46.836;16.820;2024-02-26T01:05:12;4.57;;;2.42;;
64467;SDS011;50853;46.836;16.820;2024-02-26T01:07:38;4.53;;;3.10;;
64467;SDS011;50853;46.836;16.820;2024-02-26T01:10:05;4.88;;;3.08;;
64467;SDS011;50853;46.836;16.820;2024-02-26T01:12:32;4.03;;;2.90;;
64467;SDS011;50853;46.836;16.820;2024-02-26T01:14:59;4.00;;;2.70;;
64467;SDS011;50853;46.836;16.820;2024-02-26T01:17:25;4.90;;;2.60;;
64467;SDS011;50853;46.836;16.820;2024-02-26T01:19:51;6.25;;;3.00;;
64467;SDS011;50853;46.836;16.820;2024-02-26T01:24:44;5.20;;;2.88;;
64467;SDS011;50853;46.836;16.820;2024-02-26T01:27:10;4.65;;;2.95;;
64467;SDS011;50853;46.836;16.820;2024-02-26T01:29:36;4.70;;;3.00;;
64467;SDS011;50853;46.836;16.820;2024-02-26T01:32:02;4.53;;;3.08;;
64467;SDS011;50853;46.836;16.820;2024-02-26T01:34:30;4.10;;;2.60;;
64467;SDS011;50853;46.836;16.820;2024-02-26T01:36:56;4.38;;;2.90;;
64467;SDS011;50853;46.836;16.820;2024-02-26T01:39:21;5.07;;;3.10;;
64467;SDS011;50853;46.836;16.820;2024-02-26T01:41:47;4.65;;;2.95;;
64467;SDS011;50853;46.836;16.820;2024-02-26T01:44:13;5.25;;;3.47;;
64467;SDS011;50853;46.836;16.820;2024-02-26T01:46:39;4.38;;;2.90;;
64467;SDS011;50853;46.836;16.820;2024-02-26T01:49:05;5.07;;;3.42;;
64467;SDS011;50853;46.836;16.820;2024-02-26T01:51:33;4.30;;;2.75;;
64467;SDS011;50853;46.836;16.820;2024-02-26T01:54:00;5.75;;;3.13;;
64467;SDS011;50853;46.836;16.820;2024-02-26T01:56:28;4.40;;;3.10;;
64467;SDS011;50853;46.836;16.820;2024-02-26T01:58:58;6.88;;;3.25;;
64467;SDS011;50853;46.836;16.820;2024-02-26T02:01:27;5.55;;;3.60;;
64467;SDS011;50853;46.836;16.820;2024-02-26T02:03:56;7.75;;;3.95;;
64467;SDS011;50853;46.836;16.820;2024-02-26T02:06:24;3.97;;;2.88;;
64467;SDS011;50853;46.836;16.820;2024-02-26T02:08:50;8.77;;;3.60;;
64467;SDS011;50853;46.836;16.820;2024-02-26T02:11:16;5.38;;;3.95;;
64467;SDS011;50853;46.836;16.820;2024-02-26T02:13:42;8.10;;;3.67;;
64467;SDS011;50853;46.836;16.820;2024-02-26T02:16:08;5.35;;;3.28;;
64467;SDS011;50853;46.836;16.820;2024-02-26T02:18:34;4.97;;;3.60;;
64467;SDS011;50853;46.836;16.820;2024-02-26T02:21:00;6.25;;;3.95;;
64467;SDS011;50853;46.836;16.820;2024-02-26T02:23:26;4.73;;;3.20;;
64467;SDS011;50853;46.836;16.820;2024-02-26T02:25:52;5.53;;;3.42;;
64467;SDS011;50853;46.836;16.820;2024-02-26T02:28:20;5.53;;;3.83;;
64467;SDS011;50853;46.836;16.820;2024-02-26T02:30:47;4.60;;;3.55;;
64467;SDS011;50853;46.836;16.820;2024-02-26T02:33:14;4.95;;;3.38;;
64467;SDS011;50853;46.836;16.820;2024-02-26T02:35:41;5.50;;;3.47;;
64467;SDS011;50853;46.836;16.820;2024-02-26T02:38:07;4.70;;;3.17;;
64467;SDS011;50853;46.836;16.820;2024-02-26T02:40:33;6.95;;;3.55;;
64467;SDS011;50853;46.836;16.820;2024-02-26T02:42:58;5.18;;;3.50;;
64467;SDS011;50853;46.836;16.820;2024-02-26T02:45:26;4.97;;;3.35;;
64467;SDS011;50853;46.836;16.820;2024-02-26T02:47:53;4.90;;;3.38;;
64467;SDS011;50853;46.836;16.820;2024-02-26T02:50:19;5.40;;;3.38;;
64467;SDS011;50853;46.836;16.820;2024-02-26T02:52:48;5.03;;;3.35;;
64467;SDS011;50853;46.836;16.820;2024-02-26T02:55:15;5.13;;;3.22;;
64467;SDS011;50853;46.836;16.820;2024-02-26T02:57:41;6.55;;;3.30;;
64467;SDS011;50853;46.836;16.820;2024-02-26T03:00:08;5.50;;;3.25;;
64467;SDS011;50853;46.836;16.820;2024-02-26T03:02:34;5.05;;;3.40;;
64467;SDS011;50853;46.836;16.820;2024-02-26T03:05:01;6.40;;;3.70;;
64467;SDS011;50853;46.836;16.820;2024-02-26T03:07:30;5.53;;;3.58;;
64467;SDS011;50853;46.836;16.820;2024-02-26T03:09:56;5.25;;;3.60;;
64467;SDS011;50853;46.836;16.820;2024-02-26T03:12:22;4.65;;;3.53;;
64467;SDS011;50853;46.836;16.820;2024-02-26T03:14:48;5.68;;;3.42;;
64467;SDS011;50853;46.836;16.820;2024-02-26T03:17:14;5.82;;;3.47;;
64467;SDS011;50853;46.836;16.820;2024-02-26T03:19:40;6.65;;;3.80;;
64467;SDS011;50853;46.836;16.820;2024-02-26T03:22:06;5.78;;;3.63;;
64467;SDS011;50853;46.836;16.820;2024-02-26T03:24:32;6.05;;;3.38;;
64467;SDS011;50853;46.836;16.820;2024-02-26T03:26:58;5.13;;;3.33;;
64467;SDS011;50853;46.836;16.820;2024-02-26T03:29:24;4.47;;;3.38;;
64467;SDS011;50853;46.836;16.820;2024-02-26T03:31:50;6.95;;;3.38;;
64467;SDS011;50853;46.836;16.820;2024-02-26T03:34:16;4.90;;;3.47;;
64467;SDS011;50853;46.836;16.820;2024-02-26T03:36:43;6.47;;;4.00;;
64467;SDS011;50853;46.836;16.820;2024-02-26T03:39:10;6.82;;;3.97;;
64467;SDS011;50853;46.836;16.820;2024-02-26T03:41:36;5.18;;;3.70;;
64467;SDS011;50853;46.836;16.820;2024-02-26T03:44:02;5.57;;;3.60;;
64467;SDS011;50853;46.836;16.820;2024-02-26T03:46:28;6.32;;;4.03;;
64467;SDS011;50853;46.836;16.820;2024-02-26T03:48:54;6.07;;;4.15;;
64467;SDS011;50853;46.836;16.820;2024-02-26T03:51:20;5.70;;;3.80;;
64467;SDS011;50853;46.836;16.820;2024-02-26T03:53:45;5.50;;;3.60;;
64467;SDS011;50853;46.836;16.820;2024-02-26T03:56:11;6.10;;;4.22;;
64467;SDS011;50853;46.836;16.820;2024-02-26T03:58:40;6.18;;;3.70;;
64467;SDS011;50853;46.836;16.820;2024-02-26T04:01:07;5.97;;;3.78;;
64467;SDS011;50853;46.836;16.820;2024-02-26T04:03:34;5.68;;;3.83;;
64467;SDS011;50853;46.836;16.820;2024-02-26T04:06:01;5.68;;;3.47;;
64467;SDS011;50853;46.836;16.820;2024-02-26T04:08:28;6.50;;;3.97;;
64467;SDS011;50853;46.836;16.820;2024-02-26T04:10:53;6.22;;;4.03;;
64467;SDS011;50853;46.836;16.820;2024-02-26T04:13:19;6.25;;;3.85;;
64467;SDS011;50853;46.836;16.820;2024-02-26T04:15:45;5.57;;;3.50;;
64467;SDS011;50853;46.836;16.820;2024-02-26T04:18:11;6.33;;;3.90;;
64467;SDS011;50853;46.836;16.820;2024-02-26T04:20:38;5.75;;;3.88;;
64467;SDS011;50853;46.836;16.820;2024-02-26T04:23:04;5.57;;;3.47;;
64467;SDS011;50853;46.836;16.820;2024-02-26T04:25:30;5.03;;;3.50;;
64467;SDS011;50853;46.836;16.820;2024-02-26T04:27:56;5.85;;;3.75;;
64467;SDS011;50853;46.836;16.820;2024-02-26T04:30:22;5.50;;;3.60;;
64467;SDS011;50853;46.836;16.820;2024-02-26T04:32:48;4.68;;;3.30;;
64467;SDS011;50853;46.836;16.820;2024-02-26T04:35:13;5.65;;;3.65;;
64467;SDS011;50853;46.836;16.820;2024-02-26T04:37:39;4.50;;;3.35;;
64467;SDS011;50853;46.836;16.820;2024-02-26T04:40:05;4.45;;;3.13;;
64467;SDS011;50853;46.836;16.820;2024-02-26T04:42:32;4.90;;;3.30;;
64467;SDS011;50853;46.836;16.820;2024-02-26T04:44:58;4.28;;;3.25;;
64467;SDS011;50853;46.836;16.820;2024-02-26T04:47:24;4.65;;;3.25;;
64467;SDS011;50853;46.836;16.820;2024-02-26T04:49:50;4.78;;;3.05;;
64467;SDS011;50853;46.836;16.820;2024-02-26T04:52:17;6.47;;;3.60;;
64467;SDS011;50853;46.836;16.820;2024-02-26T04:54:43;4.93;;;3.58;;
64467;SDS011;50853;46.836;16.820;2024-02-26T04:57:09;4.68;;;3.40;;
64467;SDS011;50853;46.836;16.820;2024-02-26T04:59:35;7.63;;;3.72;;
64467;SDS011;50853;46.836;16.820;2024-02-26T05:02:01;5.30;;;3.78;;
64467;SDS011;50853;46.836;16.820;2024-02-26T05:04:27;5.85;;;3.42;;
64467;SDS011;50853;46.836;16.820;2024-02-26T05:06:53;5.05;;;3.65;;
64467;SDS011;50853;46.836;16.820;2024-02-26T05:09:19;5.15;;;3.65;;
64467;SDS011;50853;46.836;16.820;2024-02-26T05:11:45;6.10;;;3.50;;
64467;SDS011;50853;46.836;16.820;2024-02-26T05:14:11;6.18;;;3.67;;
64467;SDS011;50853;46.836;16.820;2024-02-26T05:16:36;4.60;;;3.35;;
64467;SDS011;50853;46.836;16.820;2024-02-26T05:19:02;4.25;;;3.05;;
64467;SDS011;50853;46.836;16.820;2024-02-26T05:21:28;5.93;;;3.85;;
64467;SDS011;50853;46.836;16.820;2024-02-26T05:23:54;6.00;;;3.97;;
64467;SDS011;50853;46.836;16.820;2024-02-26T05:26:20;5.78;;;3.42;;
64467;SDS011;50853;46.836;16.820;2024-02-26T05:28:47;7.40;;;3.67;;
64467;SDS011;50853;46.836;16.820;2024-02-26T05:31:14;6.30;;;3.70;;
64467;SDS011;50853;46.836;16.820;2024-02-26T05:33:40;5.07;;;4.07;;
64467;SDS011;50853;46.836;16.820;2024-02-26T05:36:06;6.13;;;3.78;;
64467;SDS011;50853;46.836;16.820;2024-02-26T05:38:32;4.63;;;3.55;;
64467;SDS011;50853;46.836;16.820;2024-02-26T05:40:58;5.60;;;3.72;;
64467;SDS011;50853;46.836;16.820;2024-02-26T05:43:25;5.00;;;3.23;;
64467;SDS011;50853;46.836;16.820;2024-02-26T05:45:51;4.45;;;3.00;;
64467;SDS011;50853;46.836;16.820;2024-02-26T05:48:17;5.53;;;3.90;;
64467;SDS011;50853;46.836;16.820;2024-02-26T05:50:44;4.75;;;3.30;;
64467;SDS011;50853;46.836;16.820;2024-02-26T05:53:10;4.83;;;3.17;;
64467;SDS011;50853;46.836;16.820;2024-02-26T05:55:36;6.88;;;3.95;;
64467;SDS011;50853;46.836;16.820;2024-02-26T05:58:03;4.85;;;3.40;;
64467;SDS011;50853;46.836;16.820;2024-02-26T06:00:29;5.33;;;3.40;;
64467;SDS011;50853;46.836;16.820;2024-02-26T06:02:55;5.40;;;3.70;;
64467;SDS011;50853;46.836;16.820;2024-02-26T06:05:20;5.00;;;3.40;;
64467;SDS011;50853;46.836;16.820;2024-02-26T06:07:46;4.57;;;3.00;;
64467;SDS011;50853;46.836;16.820;2024-02-26T06:10:12;4.90;;;3.50;;
64467;SDS011;50853;46.836;16.820;2024-02-26T06:12:41;5.80;;;3.88;;
64467;SDS011;50853;46.836;16.820;2024-02-26T06:15:07;5.85;;;3.67;;
64467;SDS011;50853;46.836;16.820;2024-02-26T06:17:33;4.93;;;3.53;;
64467;SDS011;50853;46.836;16.820;2024-02-26T06:19:59;5.53;;;3.47;;
64467;SDS011;50853;46.836;16.820;2024-02-26T06:22:25;5.60;;;3.50;;
64467;SDS011;50853;46.836;16.820;2024-02-26T06:24:51;5.25;;;3.45;;
64467;SDS011;50853;46.836;16.820;2024-02-26T06:27:17;6.32;;;3.80;;
64467;SDS011;50853;46.836;16.820;2024-02-26T06:29:42;5.03;;;3.33;;
64467;SDS011;50853;46.836;16.820;2024-02-26T06:32:08;5.32;;;3.55;;
64467;SDS011;50853;46.836;16.820;2024-02-26T06:34:34;4.60;;;3.50;;
64467;SDS011;50853;46.836;16.820;2024-02-26T06:37:00;5.82;;;3.65;;
64467;SDS011;50853;46.836;16.820;2024-02-26T06:39:26;4.72;;;3.58;;
64467;SDS011;50853;46.836;16.820;2024-02-26T06:41:52;7.85;;;3.90;;
64467;SDS011;50853;46.836;16.820;2024-02-26T06:44:25;6.63;;;3.58;;
64467;SDS011;50853;46.836;16.820;2024-02-26T06:46:56;5.43;;;3.28;;
64467;SDS011;50853;46.836;16.820;2024-02-26T06:49:25;5.30;;;3.90;;
64467;SDS011;50853;46.836;16.820;2024-02-26T06:51:52;7.47;;;3.73;;
64467;SDS011;50853;46.836;16.820;2024-02-26T06:54:18;5.18;;;3.42;;
64467;SDS011;50853;46.836;16.820;2024-02-26T06:56:44;4.90;;;3.10;;
64467;SDS011;50853;46.836;16.820;2024-02-26T06:59:09;4.60;;;3.40;;
64467;SDS011;50853;46.836;16.820;2024-02-26T07:01:35;5.55;;;3.88;;
64467;SDS011;50853;46.836;16.820;2024-02-26T07:04:01;5.40;;;3.55;;
64467;SDS011;50853;46.836;16.820;2024-02-26T07:06:27;5.82;;;3.60;;
64467;SDS011;50853;46.836;16.820;2024-02-26T07:08:53;5.63;;;3.60;;
64467;SDS011;50853;46.836;16.820;2024-02-26T07:11:19;5.65;;;3.53;;
64467;SDS011;50853;46.836;16.820;2024-02-26T07:13:47;6.10;;;3.33;;
64467;SDS011;50853;46.836;16.820;2024-02-26T07:16:15;4.90;;;3.22;;
64467;SDS011;50853;46.836;16.820;2024-02-26T07:18:40;4.70;;;3.45;;
64467;SDS011;50853;46.836;16.820;2024-02-26T07:23:34;3.90;;;2.88;;
64467;SDS011;50853;46.836;16.820;2024-02-26T07:26:00;5.15;;;3.55;;
64467;SDS011;50853;46.836;16.820;2024-02-26T07:28:25;6.47;;;3.58;;
64467;SDS011;50853;46.836;16.820;2024-02-26T07:30:51;5.15;;;3.42;;
64467;SDS011;50853;46.836;16.820;2024-02-26T07:33:17;4.85;;;3.45;;
64467;SDS011;50853;46.836;16.820;2024-02-26T07:35:43;4.38;;;3.30;;
64467;SDS011;50853;46.836;16.820;2024-02-26T07:38:09;5.28;;;3.22;;
64467;SDS011;50853;46.836;16.820;2024-02-26T07:40:35;6.28;;;4.07;;
64467;SDS011;50853;46.836;16.820;2024-02-26T07:43:01;6.88;;;3.78;;
64467;SDS011;50853;46.836;16.820;2024-02-26T07:45:27;5.47;;;3.53;;
64467;SDS011;50853;46.836;16.820;2024-02-26T07:47:52;4.75;;;3.55;;
64467;SDS011;50853;46.836;16.820;2024-02-26T07:50:18;6.50;;;4.07;;
64467;SDS011;50853;46.836;16.820;2024-02-26T07:52:44;6.00;;;3.80;;
64467;SDS011;50853;46.836;16.820;2024-02-26T07:55:10;5.70;;;3.65;;
64467;SDS011;50853;46.836;16.820;2024-02-26T07:57:36;5.45;;;3.80;;
64467;SDS011;50853;46.836;16.820;2024-02-26T08:00:04;7.07;;;3.90;;
64467;SDS011;50853;46.836;16.820;2024-02-26T08:02:34;6.13;;;3.95;;
64467;SDS011;50853;46.836;16.820;2024-02-26T08:05:01;5.43;;;3.80;;
64467;SDS011;50853;46.836;16.820;2024-02-26T08:07:27;4.95;;;3.65;;
64467;SDS011;50853;46.836;16.820;2024-02-26T08:09:53;5.25;;;3.47;;
64467;SDS011;50853;46.836;16.820;2024-02-26T08:12:19;6.65;;;3.92;;
64467;SDS011;50853;46.836;16.820;2024-02-26T08:14:45;5.55;;;3.47;;
64467;SDS011;50853;46.836;16.820;2024-02-26T08:17:12;6.35;;;3.33;;
64467;SDS011;50853;46.836;16.820;2024-02-26T08:19:38;5.03;;;3.53;;
64467;SDS011;50853;46.836;16.820;2024-02-26T08:22:04;5.43;;;3.55;;
64467;SDS011;50853;46.836;16.820;2024-02-26T08:24:30;5.97;;;3.95;;
64467;SDS011;50853;46.836;16.820;2024-02-26T08:26:56;5.63;;;3.58;;
64467;SDS011;50853;46.836;16.820;2024-02-26T08:29:21;5.05;;;3.05;;
64467;SDS011;50853;46.836;16.820;2024-02-26T08:31:47;5.93;;;3.92;;
64467;SDS011;50853;46.836;16.820;2024-02-26T08:34:13;5.05;;;3.55;;
64467;SDS011;50853;46.836;16.820;2024-02-26T08:36:39;5.07;;;3.45;;
64467;SDS011;50853;46.836;16.820;2024-02-26T08:39:05;4.43;;;2.88;;
64467;SDS011;50853;46.836;16.820;2024-02-26T08:41:32;4.35;;;3.00;;
64467;SDS011;50853;46.836;16.820;2024-02-26T08:43:58;5.22;;;3.70;;
64467;SDS011;50853;46.836;16.820;2024-02-26T08:46:24;5.25;;;3.60;;
64467;SDS011;50853;46.836;16.820;2024-02-26T08:48:49;4.70;;;3.60;;
64467;SDS011;50853;46.836;16.820;2024-02-26T08:51:15;4.53;;;3.13;;
64467;SDS011;50853;46.836;16.820;2024-02-26T08:53:42;5.10;;;3.15;;
64467;SDS011;50853;46.836;16.820;2024-02-26T08:56:07;4.40;;;2.92;;
64467;SDS011;50853;46.836;16.820;2024-02-26T08:58:33;5.18;;;3.20;;
64467;SDS011;50853;46.836;16.820;2024-02-26T09:00:59;4.75;;;2.97;;
64467;SDS011;50853;46.836;16.820;2024-02-26T09:03:25;5.18;;;3.17;;
64467;SDS011;50853;46.836;16.820;2024-02-26T09:05:51;5.25;;;3.40;;
64467;SDS011;50853;46.836;16.820;2024-02-26T09:08:17;5.20;;;3.00;;
64467;SDS011;50853;46.836;16.820;2024-02-26T09:10:43;5.18;;;3.35;;
64467;SDS011;50853;46.836;16.820;2024-02-26T09:13:08;4.75;;;3.00;;
64467;SDS011;50853;46.836;16.820;2024-02-26T09:15:34;5.03;;;3.20;;
64467;SDS011;50853;46.836;16.820;2024-02-26T09:18:00;3.83;;;2.85;;
64467;SDS011;50853;46.836;16.820;2024-02-26T09:20:26;4.47;;;3.30;;
64467;SDS011;50853;46.836;16.820;2024-02-26T09:22:52;5.13;;;3.33;;
64467;SDS011;50853;46.836;16.820;2024-02-26T09:25:18;4.20;;;3.08;;
64467;SDS011;50853;46.836;16.820;2024-02-26T09:27:44;4.50;;;2.95;;
64467;SDS011;50853;46.836;16.820;2024-02-26T09:30:10;5.22;;;3.13;;
64467;SDS011;50853;46.836;16.820;2024-02-26T09:32:37;4.63;;;2.90;;
64467;SDS011;50853;46.836;16.820;2024-02-26T09:35:04;5.00;;;2.80;;
64467;SDS011;50853;46.836;16.820;2024-02-26T09:37:30;4.43;;;3.40;;
64467;SDS011;50853;46.836;16.820;2024-02-26T09:39:56;4.32;;;3.05;;
64467;SDS011;50853;46.836;16.820;2024-02-26T09:42:22;4.07;;;2.80;;
64467;SDS011;50853;46.836;16.820;2024-02-26T09:44:51;5.80;;;3.13;;
64467;SDS011;50853;46.836;16.820;2024-02-26T09:47:23;5.03;;;2.90;;
64467;SDS011;50853;46.836;16.820;2024-02-26T09:49:52;5.57;;;3.30;;
64467;SDS011;50853;46.836;16.820;2024-02-26T09:52:19;5.45;;;2.85;;
64467;SDS011;50853;46.836;16.820;2024-02-26T09:54:49;4.85;;;3.00;;
64467;SDS011;50853;46.836;16.820;2024-02-26T09:57:15;5.35;;;2.88;;
64467;SDS011;50853;46.836;16.820;2024-02-26T09:59:42;4.40;;;2.92;;
64467;SDS011;50853;46.836;16.820;2024-02-26T10:02:11;4.28;;;2.67;;
64467;SDS011;50853;46.836;16.820;2024-02-26T10:04:41;3.92;;;2.75;;
64467;SDS011;50853;46.836;16.820;2024-02-26T10:07:11;4.30;;;2.78;;
64467;SDS011;50853;46.836;16.820;2024-02-26T10:09:38;5.38;;;3.00;;
64467;SDS011;50853;46.836;16.820;2024-02-26T10:12:04;4.30;;;2.70;;
64467;SDS011;50853;46.836;16.820;2024-02-26T10:14:32;3.72;;;2.45;;
64467;SDS011;50853;46.836;16.820;2024-02-26T10:16:58;4.53;;;2.90;;
64467;SDS011;50853;46.836;16.820;2024-02-26T10:19:29;4.03;;;2.67;;
64467;SDS011;50853;46.836;16.820;2024-02-26T10:21:56;4.72;;;2.95;;
64467;SDS011;50853;46.836;16.820;2024-02-26T10:24:23;4.18;;;2.63;;
64467;SDS011;50853;46.836;16.820;2024-02-26T10:26:50;4.18;;;2.80;;
64467;SDS011;50853;46.836;16.820;2024-02-26T10:29:17;3.92;;;2.80;;
64467;SDS011;50853;46.836;16.820;2024-02-26T10:31:44;4.75;;;2.72;;
64467;SDS011;50853;46.836;16.820;2024-02-26T10:34:10;3.30;;;2.40;;
64467;SDS011;50853;46.836;16.820;2024-02-26T10:36:37;6.43;;;2.80;;
64467;SDS011;50853;46.836;16.820;2024-02-26T10:39:06;3.83;;;2.42;;
64467;SDS011;50853;46.836;16.820;2024-02-26T10:41:34;5.97;;;2.60;;
64467;SDS011;50853;46.836;16.820;2024-02-26T10:44:01;3.60;;;2.55;;
64467;SDS011;50853;46.836;16.820;2024-02-26T10:46:27;3.53;;;2.22;;
64467;SDS011;50853;46.836;16.820;2024-02-26T10:48:53;3.90;;;2.30;;
64467;SDS011;50853;46.836;16.820;2024-02-26T10:51:28;3.47;;;2.47;;
64467;SDS011;50853;46.836;16.820;2024-02-26T10:53:56;3.53;;;2.45;;
64467;SDS011;50853;46.836;16.820;2024-02-26T10:56:24;3.70;;;2.60;;
64467;SDS011;50853;46.836;16.820;2024-02-26T10:58:55;3.38;;;2.20;;
64467;SDS011;50853;46.836;16.820;2024-02-26T11:01:22;3.67;;;2.55;;
64467;SDS011;50853;46.836;16.820;2024-02-26T11:03:50;4.72;;;2.28;;
64467;SDS011;50853;46.836;16.820;2024-02-26T11:08:52;3.33;;;2.20;;
64467;SDS011;50853;46.836;16.820;2024-02-26T11:11:20;4.00;;;2.83;;
64467;SDS011;50853;46.836;16.820;2024-02-26T11:13:48;5.88;;;2.63;;
64467;SDS011;50853;46.836;16.820;2024-02-26T11:16:18;2.88;;;2.08;;
64467;SDS011;50853;46.836;16.820;2024-02-26T11:18:47;3.38;;;2.30;;
64467;SDS011;50853;46.836;16.820;2024-02-26T11:21:16;3.30;;;2.45;;
64467;SDS011;50853;46.836;16.820;2024-02-26T11:23:53;3.20;;;2.50;;
64467;SDS011;50853;46.836;16.820;2024-02-26T11:26:19;3.15;;;2.13;;
64467;SDS011;50853;46.836;16.820;2024-02-26T11:28:48;3.78;;;2.35;;
64467;SDS011;50853;46.836;16.820;2024-02-26T11:31:16;3.22;;;2.25;;
64467;SDS011;50853;46.836;16.820;2024-02-26T11:33:45;3.63;;;2.38;;
64467;SDS011;50853;46.836;16.820;2024-02-26T11:36:12;2.75;;;1.95;;
64467;SDS011;50853;46.836;16.820;2024-02-26T11:38:39;4.50;;;2.53;;
64467;SDS011;50853;46.836;16.820;2024-02-26T11:41:05;3.08;;;2.03;;
64467;SDS011;50853;46.836;16.820;2024-02-26T11:46:32;2.70;;;1.98;;
64467;SDS011;50853;46.836;16.820;2024-02-26T11:49:29;3.65;;;2.55;;
64467;SDS011;50853;46.836;16.820;2024-02-26T11:51:56;3.63;;;1.95;;
64467;SDS011;50853;46.836;16.820;2024-02-26T12:00:15;3.10;;;1.92;;
64467;SDS011;50853;46.836;16.820;2024-02-26T12:05:15;3.05;;;2.00;;
64467;SDS011;50853;46.836;16.820;2024-02-26T12:08:05;3.83;;;2.17;;
64467;SDS011;50853;46.836;16.820;2024-02-26T12:10:36;2.88;;;2.10;;
64467;SDS011;50853;46.836;16.820;2024-02-26T12:13:07;3.60;;;2.00;;
64467;SDS011;50853;46.836;16.820;2024-02-26T12:15:38;3.88;;;2.30;;
64467;SDS011;50853;46.836;16.820;2024-02-26T12:18:09;3.17;;;1.92;;
64467;SDS011;50853;46.836;16.820;2024-02-26T12:20:40;3.15;;;2.05;;
64467;SDS011;50853;46.836;16.820;2024-02-26T12:23:06;2.88;;;2.00;;
64467;SDS011;50853;46.836;16.820;2024-02-26T12:25:32;3.50;;;2.17;;
64467;SDS011;50853;46.836;16.820;2024-02-26T12:27:59;2.60;;;1.98;;
64467;SDS011;50853;46.836;16.820;2024-02-26T12:30:25;2.80;;;2.00;;
64467;SDS011;50853;46.836;16.820;2024-02-26T12:32:55;2.95;;;1.98;;
64467;SDS011;50853;46.836;16.820;2024-02-26T12:35:22;3.17;;;1.75;;
64467;SDS011;50853;46.836;16.820;2024-02-26T12:37:49;3.33;;;1.90;;
64467;SDS011;50853;46.836;16.820;2024-02-26T12:40:16;3.53;;;2.20;;
64467;SDS011;50853;46.836;16.820;2024-02-26T12:42:43;4.40;;;2.20;;
64467;SDS011;50853;46.836;16.820;2024-02-26T12:45:12;5.35;;;1.90;;
64467;SDS011;50853;46.836;16.820;2024-02-26T12:47:40;3.00;;;1.90;;
64467;SDS011;50853;46.836;16.820;2024-02-26T12:50:07;3.45;;;2.10;;
64467;SDS011;50853;46.836;16.820;2024-02-26T12:52:35;2.55;;;1.85;;
64467;SDS011;50853;46.836;16.820;2024-02-26T12:55:04;3.08;;;2.03;;
64467;SDS011;50853;46.836;16.820;2024-02-26T12:57:34;3.10;;;1.90;;
64467;SDS011;50853;46.836;16.820;2024-02-26T13:00:02;2.60;;;1.75;;
64467;SDS011;50853;46.836;16.820;2024-02-26T13:02:36;3.08;;;1.77;;
64467;SDS011;50853;46.836;16.820;2024-02-26T13:05:03;3.13;;;1.75;;
64467;SDS011;50853;46.836;16.820;2024-02-26T13:07:30;3.03;;;1.90;;
64467;SDS011;50853;46.836;16.820;2024-02-26T13:09:56;3.88;;;1.90;;
64467;SDS011;50853;46.836;16.820;2024-02-26T13:12:22;2.40;;;1.73;;
64467;SDS011;50853;46.836;16.820;2024-02-26T13:14:58;2.27;;;1.60;;
64467;SDS011;50853;46.836;16.820;2024-02-26T13:17:35;3.15;;;1.98;;
64467;SDS011;50853;46.836;16.820;2024-02-26T13:20:00;2.95;;;1.90;;
64467;SDS011;50853;46.836;16.820;2024-02-26T13:22:28;2.47;;;1.70;;
64467;SDS011;50853;46.836;16.820;2024-02-26T13:24:58;2.95;;;2.00;;
64467;SDS011;50853;46.836;16.820;2024-02-26T13:27:25;3.40;;;1.77;;
64467;SDS011;50853;46.836;16.820;2024-02-26T13:30:04;3.42;;;1.85;;
64467;SDS011;50853;46.836;16.820;2024-02-26T13:32:34;2.70;;;1.60;;
64467;SDS011;50853;46.836;16.820;2024-02-26T13:35:05;2.40;;;1.58;;
64467;SDS011;50853;46.836;16.820;2024-02-26T13:37:33;2.65;;;1.75;;
64467;SDS011;50853;46.836;16.820;2024-02-26T13:39:59;2.83;;;1.80;;
64467;SDS011;50853;46.836;16.820;2024-02-26T13:42:25;3.38;;;2.20;;
64467;SDS011;50853;46.836;16.820;2024-02-26T13:44:50;3.00;;;2.00;;
64467;SDS011;50853;46.836;16.820;2024-02-26T13:47:16;2.42;;;1.77;;
64467;SDS011;50853;46.836;16.820;2024-02-26T13:49:43;2.90;;;1.70;;
64467;SDS011;50853;46.836;16.820;2024-02-26T13:52:09;2.03;;;1.48;;
64467;SDS011;50853;46.836;16.820;2024-02-26T13:54:35;3.78;;;1.90;;
64467;SDS011;50853;46.836;16.820;2024-02-26T13:57:03;2.92;;;1.70;;
64467;SDS011;50853;46.836;16.820;2024-02-26T13:59:29;2.45;;;1.65;;
64467;SDS011;50853;46.836;16.820;2024-02-26T14:01:55;2.58;;;1.63;;
64467;SDS011;50853;46.836;16.820;2024-02-26T14:04:21;2.53;;;1.70;;
64467;SDS011;50853;46.836;16.820;2024-02-26T14:06:47;2.30;;;1.60;;
64467;SDS011;50853;46.836;16.820;2024-02-26T14:09:12;2.72;;;1.67;;
64467;SDS011;50853;46.836;16.820;2024-02-26T14:11:45;2.75;;;1.80;;
64467;SDS011;50853;46.836;16.820;2024-02-26T14:14:11;2.80;;;1.80;;
64467;SDS011;50853;46.836;16.820;2024-02-26T14:16:36;2.17;;;1.50;;
64467;SDS011;50853;46.836;16.820;2024-02-26T14:19:02;2.33;;;1.52;;
64467;SDS011;50853;46.836;16.820;2024-02-26T14:21:28;2.10;;;1.60;;
64467;SDS011;50853;46.836;16.820;2024-02-26T14:23:57;2.20;;;1.60;;
64467;SDS011;50853;46.836;16.820;2024-02-26T14:26:23;2.30;;;1.58;;
64467;SDS011;50853;46.836;16.820;2024-02-26T14:28:49;3.30;;;2.25;;
64467;SDS011;50853;46.836;16.820;2024-02-26T14:31:18;2.42;;;1.60;;
64467;SDS011;50853;46.836;16.820;2024-02-26T14:33:44;5.20;;;1.85;;
64467;SDS011;50853;46.836;16.820;2024-02-26T14:36:10;2.90;;;1.60;;
64467;SDS011;50853;46.836;16.820;2024-02-26T14:41:04;2.25;;;1.40;;
64467;SDS011;50853;46.836;16.820;2024-02-26T14:43:31;2.47;;;1.63;;
64467;SDS011;50853;46.836;16.820;2024-02-26T14:45:57;2.72;;;1.80;;
64467;SDS011;50853;46.836;16.820;2024-02-26T14:48:24;2.63;;;1.52;;
64467;SDS011;50853;46.836;16.820;2024-02-26T14:50:50;2.42;;;1.52;;
64467;SDS011;50853;46.836;16.820;2024-02-26T14:53:16;2.05;;;1.38;;